Time;durP1;ratioP1;P1;durP2;ratioP2;P2;SDS_P1;SDS_P2;PMS_P1;PMS_P2;Temp;Humidity;BMP_temperature;BMP_pressure;BME280_temperature;BME280_humidity;BME280_pressure;Samples;Min_cycle;Max_cycle;Signal;HPM_P1;HPM_P2
2022/05/24 00:01:19;;;;;;;2.67;1.50;;;;;;;;;;5034855;28;20025;-40
2022/05/24 00:03:44;;;;;;;1.98;1.73;;;;;;;;;;5034659;28;20518;-40
2022/05/24 00:06:09;;;;;;;3.22;2.00;;;;;;;;;;5035307;28;20052;-40
2022/05/24 00:08:35;;;;;;;2.33;1.70;;;;;;;;;;5034599;28;20048;-40
2022/05/24 00:11:00;;;;;;;5.80;1.83;;;;;;;;;;5034896;28;20048;-40
2022/05/24 00:13:26;;;;;;;3.20;1.73;;;;;;;;;;5033389;28;20159;-40
2022/05/24 00:15:51;;;;;;;14.27;1.92;;;;;;;;;;5033162;28;20028;-40
2022/05/24 00:18:18;;;;;;;6.85;1.80;;;;;;;;;;5034402;28;20023;-40
2022/05/24 00:20:43;;;;;;;2.08;1.65;;;;;;;;;;5034341;28;20527;-40
2022/05/24 00:23:09;;;;;;;3.45;1.70;;;;;;;;;;5033379;28;20025;-41
2022/05/24 00:25:36;;;;;;;6.80;1.90;;;;;;;;;;5034279;28;20465;-40
2022/05/24 00:28:02;;;;;;;3.90;1.63;;;;;;;;;;5033062;28;20024;-40
2022/05/24 00:30:27;;;;;;;5.15;1.80;;;;;;;;;;5034273;28;20021;-40
2022/05/24 00:32:53;;;;;;;6.60;1.75;;;;;;;;;;5034068;28;20026;-41
2022/05/24 00:35:18;;;;;;;3.38;2.00;;;;;;;;;;5032545;28;20049;-40
2022/05/24 00:37:45;;;;;;;5.68;2.33;;;;;;;;;;5032953;28;20029;-40
2022/05/24 00:40:16;;;;;;;7.53;2.28;;;;;;;;;;5034298;28;20025;-40
2022/05/24 00:42:43;;;;;;;3.53;2.25;;;;;;;;;;5033991;28;20017;-40
2022/05/24 00:45:11;;;;;;;3.58;2.33;;;;;;;;;;5034115;28;20488;-40
2022/05/24 00:47:39;;;;;;;8.48;2.33;;;;;;;;;;5032428;28;20468;-40
2022/05/24 00:50:17;;;;;;;4.15;2.05;;;;;;;;;;5032753;28;20471;-40
2022/05/24 00:52:50;;;;;;;4.80;2.22;;;;;;;;;;5029278;28;20595;-40
2022/05/24 00:55:21;;;;;;;5.80;1.75;;;;;;;;;;5012660;28;20040;-40
2022/05/24 00:57:54;;;;;;;4.22;1.80;;;;;;;;;;5013877;28;20028;-40
2022/05/24 01:00:21;;;;;;;5.22;1.92;;;;;;;;;;5012567;28;20451;-40
2022/05/24 01:02:47;;;;;;;4.60;2.28;;;;;;;;;;5014293;28;20468;-40
2022/05/24 01:05:15;;;;;;;6.53;1.92;;;;;;;;;;5013708;28;20022;-40
2022/05/24 01:07:40;;;;;;;9.15;2.40;;;;;;;;;;5012681;28;20071;-40
2022/05/24 01:10:05;;;;;;;5.68;2.03;;;;;;;;;;5013770;28;20017;-40
2022/05/24 01:12:34;;;;;;;5.40;2.10;;;;;;;;;;5013580;28;20064;-40
2022/05/24 01:15:01;;;;;;;5.23;2.20;;;;;;;;;;5013572;28;20038;-40
2022/05/24 01:17:26;;;;;;;3.47;1.80;;;;;;;;;;5012669;28;20029;-40
2022/05/24 01:19:52;;;;;;;3.63;2.13;;;;;;;;;;5012688;28;20022;-40
2022/05/24 01:22:17;;;;;;;2.30;2.10;;;;;;;;;;5013869;28;20520;-40
2022/05/24 01:25:03;;;;;;;3.55;2.30;;;;;;;;;;5013531;28;20019;-40
2022/05/24 01:27:28;;;;;;;5.30;2.38;;;;;;;;;;5006159;28;20034;-40
2022/05/24 01:29:54;;;;;;;2.58;2.22;;;;;;;;;;5012232;28;20029;-40
2022/05/24 01:37:47;;;;;;;5.63;2.15;;;;;;;;;;5013572;28;20523;-40
2022/05/24 01:40:12;;;;;;;6.63;2.20;;;;;;;;;;5012288;28;20026;-40
2022/05/24 01:42:38;;;;;;;5.53;2.05;;;;;;;;;;5012166;28;20075;-40
2022/05/24 01:45:12;;;;;;;8.43;2.35;;;;;;;;;;5013637;28;20232;-40
2022/05/24 01:47:38;;;;;;;5.32;2.22;;;;;;;;;;5013260;28;20115;-40
2022/05/24 01:50:06;;;;;;;6.35;2.45;;;;;;;;;;5022077;28;20465;-40
2022/05/24 01:52:38;;;;;;;6.03;2.30;;;;;;;;;;5031485;28;20036;-40
2022/05/24 01:55:08;;;;;;;3.47;2.00;;;;;;;;;;5033079;28;20025;-40
2022/05/24 01:57:36;;;;;;;8.60;2.50;;;;;;;;;;5031754;28;20431;-40
2022/05/24 02:00:04;;;;;;;6.68;2.00;;;;;;;;;;5032349;28;20464;-40
2022/05/24 02:02:30;;;;;;;7.60;2.42;;;;;;;;;;5032693;28;20057;-40
2022/05/24 02:04:55;;;;;;;6.72;2.20;;;;;;;;;;5032642;28;20409;-40
2022/05/24 02:07:22;;;;;;;4.43;2.05;;;;;;;;;;5031732;28;20059;-40
2022/05/24 02:09:49;;;;;;;8.27;2.17;;;;;;;;;;5032924;28;20028;-40
2022/05/24 02:12:19;;;;;;;5.60;2.10;;;;;;;;;;5032810;28;20067;-40
2022/05/24 02:14:57;;;;;;;4.18;2.40;;;;;;;;;;5032640;28;20021;-40
2022/05/24 02:17:31;;;;;;;3.47;2.35;;;;;;;;;;5031684;28;20021;-40
2022/05/24 02:19:58;;;;;;;3.42;1.92;;;;;;;;;;5032644;28;20104;-40
2022/05/24 02:22:25;;;;;;;2.22;2.03;;;;;;;;;;5031380;28;20032;-40
2022/05/24 02:25:10;;;;;;;12.93;2.60;;;;;;;;;;5032551;28;20036;-40
2022/05/24 02:27:39;;;;;;;3.90;2.30;;;;;;;;;;5032593;28;20037;-40
2022/05/24 02:30:05;;;;;;;2.90;2.60;;;;;;;;;;5032449;28;20029;-40
2022/05/24 02:32:31;;;;;;;4.85;2.20;;;;;;;;;;5033265;28;20037;-40
2022/05/24 02:34:56;;;;;;;4.78;2.22;;;;;;;;;;5032495;28;20120;-40
2022/05/24 02:37:21;;;;;;;5.00;1.90;;;;;;;;;;5032488;28;20018;-40
2022/05/24 02:42:31;;;;;;;4.28;1.90;;;;;;;;;;5032414;28;20563;-40
2022/05/24 02:44:56;;;;;;;5.47;1.80;;;;;;;;;;5031436;28;20128;-40
2022/05/24 02:47:22;;;;;;;5.45;2.08;;;;;;;;;;5031269;28;20113;-40
2022/05/24 02:49:48;;;;;;;5.63;2.75;;;;;;;;;;5032767;28;20029;-40
2022/05/24 02:52:14;;;;;;;19.98;3.28;;;;;;;;;;5031245;28;20030;-40
2022/05/24 02:54:40;;;;;;;7.05;2.90;;;;;;;;;;5031220;28;20397;-39
2022/05/24 02:57:05;;;;;;;7.85;3.40;;;;;;;;;;5032310;28;20033;-40
2022/05/24 02:59:30;;;;;;;4.50;3.08;;;;;;;;;;5030901;28;20063;-40
2022/05/24 03:01:56;;;;;;;9.88;3.55;;;;;;;;;;5031142;28;20022;-40
2022/05/24 03:04:21;;;;;;;10.40;3.53;;;;;;;;;;5031153;28;20456;-40
2022/05/24 03:09:33;;;;;;;9.77;3.53;;;;;;;;;;5032449;28;20515;-40
2022/05/24 03:14:42;;;;;;;4.68;3.58;;;;;;;;;;5036058;28;20043;-40
2022/05/24 03:17:08;;;;;;;8.13;4.10;;;;;;;;;;5035601;28;20029;-39
2022/05/24 03:19:34;;;;;;;5.30;4.00;;;;;;;;;;5035646;28;20025;-39
2022/05/24 03:22:00;;;;;;;6.70;3.80;;;;;;;;;;5035795;28;20028;-39
2022/05/24 03:24:25;;;;;;;9.32;4.03;;;;;;;;;;5035468;28;20021;-39
2022/05/24 03:26:51;;;;;;;12.05;3.80;;;;;;;;;;5035431;28;20445;-39
2022/05/24 03:29:17;;;;;;;6.82;4.10;;;;;;;;;;5035603;28;20468;-40
2022/05/24 03:31:42;;;;;;;6.43;3.92;;;;;;;;;;5035578;28;20518;-40
2022/05/24 03:34:08;;;;;;;5.03;3.72;;;;;;;;;;5035448;28;20022;-40
2022/05/24 03:36:33;;;;;;;6.70;3.83;;;;;;;;;;5035109;28;20507;-40
2022/05/24 03:38:59;;;;;;;10.50;3.67;;;;;;;;;;5035234;28;20025;-40
2022/05/24 03:41:25;;;;;;;5.65;4.47;;;;;;;;;;5035163;28;20436;-39
2022/05/24 03:43:50;;;;;;;7.80;4.18;;;;;;;;;;5035384;28;20029;-40
2022/05/24 03:46:16;;;;;;;14.65;4.65;;;;;;;;;;5034017;28;20028;-38
2022/05/24 03:48:42;;;;;;;10.38;4.25;;;;;;;;;;5033819;28;20057;-39
2022/05/24 03:51:07;;;;;;;8.35;4.43;;;;;;;;;;5033890;28;20119;-39
2022/05/24 03:53:33;;;;;;;8.52;4.80;;;;;;;;;;5035126;28;20123;-39
2022/05/24 03:55:58;;;;;;;9.82;5.00;;;;;;;;;;5033634;28;20040;-39
2022/05/24 03:58:24;;;;;;;7.07;4.97;;;;;;;;;;5035333;28;20029;-39
2022/05/24 04:00:49;;;;;;;8.45;4.80;;;;;;;;;;5033800;28;20053;-39
2022/05/24 04:03:15;;;;;;;11.10;5.40;;;;;;;;;;5033742;28;20100;-39
2022/05/24 04:05:41;;;;;;;14.40;5.25;;;;;;;;;;5034868;28;20104;-39
2022/05/24 04:08:06;;;;;;;10.30;5.00;;;;;;;;;;5035084;28;20104;-40
2022/05/24 04:10:34;;;;;;;7.97;4.85;;;;;;;;;;5033309;28;20036;-39
2022/05/24 04:13:00;;;;;;;7.78;5.00;;;;;;;;;;5034718;28;20025;-39
2022/05/24 04:15:26;;;;;;;8.52;5.15;;;;;;;;;;5034621;28;20032;-39
2022/05/24 04:17:52;;;;;;;10.63;5.85;;;;;;;;;;5034826;28;20071;-39
2022/05/24 04:20:19;;;;;;;10.57;5.78;;;;;;;;;;5034576;28;20108;-39
2022/05/24 04:22:44;;;;;;;12.52;5.43;;;;;;;;;;5032747;28;20033;-39
2022/05/24 04:25:10;;;;;;;12.85;5.80;;;;;;;;;;5032972;28;20029;-39
2022/05/24 04:27:36;;;;;;;13.57;5.60;;;;;;;;;;5034900;28;20049;-39
2022/05/24 04:30:01;;;;;;;9.95;5.53;;;;;;;;;;5033589;28;20013;-39
2022/05/24 04:32:26;;;;;;;10.82;5.32;;;;;;;;;;5034375;28;20021;-39
2022/05/24 04:34:52;;;;;;;10.20;5.03;;;;;;;;;;5032775;28;20060;-39
2022/05/24 04:37:18;;;;;;;10.57;5.53;;;;;;;;;;5034143;28;20472;-39
2022/05/24 04:39:43;;;;;;;8.02;5.03;;;;;;;;;;5032750;28;20021;-38
2022/05/24 04:42:24;;;;;;;10.00;4.85;;;;;;;;;;5033099;28;20028;-39
2022/05/24 04:45:00;;;;;;;11.75;5.13;;;;;;;;;;5032763;28;20135;-39
2022/05/24 04:47:31;;;;;;;10.38;5.60;;;;;;;;;;5033936;28;20025;-39
2022/05/24 04:49:57;;;;;;;6.95;5.45;;;;;;;;;;5032763;28;20021;-39
2022/05/24 04:52:23;;;;;;;10.70;5.15;;;;;;;;;;5033774;28;20032;-39
2022/05/24 04:54:49;;;;;;;8.85;5.75;;;;;;;;;;5033948;28;20030;-39
2022/05/24 04:57:15;;;;;;;6.57;5.10;;;;;;;;;;5032654;28;20488;-39
2022/05/24 04:59:40;;;;;;;8.55;5.47;;;;;;;;;;5033760;28;20018;-39
2022/05/24 05:02:06;;;;;;;10.52;5.70;;;;;;;;;;5033855;28;20487;-39
2022/05/24 05:04:32;;;;;;;10.02;5.22;;;;;;;;;;5033717;28;20446;-40
2022/05/24 05:06:57;;;;;;;9.45;4.93;;;;;;;;;;5033536;28;20037;-40
2022/05/24 05:09:23;;;;;;;12.35;6.25;;;;;;;;;;5033895;28;20049;-40
2022/05/24 05:11:48;;;;;;;25.17;5.90;;;;;;;;;;5033794;28;20040;-40
2022/05/24 05:14:13;;;;;;;9.43;5.53;;;;;;;;;;5033698;28;20151;-39
2022/05/24 05:16:39;;;;;;;11.05;5.30;;;;;;;;;;5033452;28;20033;-39
2022/05/24 05:19:09;;;;;;;12.05;5.90;;;;;;;;;;5033445;28;20406;-39
2022/05/24 05:21:36;;;;;;;8.95;5.85;;;;;;;;;;5031993;28;20091;-39
2022/05/24 05:24:02;;;;;;;15.68;6.70;;;;;;;;;;5033346;28;20022;-39
2022/05/24 05:26:28;;;;;;;9.88;5.53;;;;;;;;;;5033511;28;20021;-39
2022/05/24 05:28:54;;;;;;;9.73;6.20;;;;;;;;;;5033161;28;20465;-39
2022/05/24 05:31:22;;;;;;;7.97;5.70;;;;;;;;;;5032166;28;20029;-39
2022/05/24 05:33:48;;;;;;;12.95;5.68;;;;;;;;;;5032411;28;20025;-39
2022/05/24 05:36:14;;;;;;;10.02;5.75;;;;;;;;;;5031604;28;20049;-39
2022/05/24 05:38:46;;;;;;;10.15;5.80;;;;;;;;;;5033164;28;20353;-40
2022/05/24 05:41:21;;;;;;;8.40;5.72;;;;;;;;;;5033117;28;20018;-39
2022/05/24 05:43:47;;;;;;;9.13;5.00;;;;;;;;;;5028430;28;20050;-39
2022/05/24 05:46:13;;;;;;;10.45;5.43;;;;;;;;;;5012029;28;20053;-39
2022/05/24 05:48:39;;;;;;;6.50;4.90;;;;;;;;;;5013183;28;20443;-39
2022/05/24 05:51:05;;;;;;;8.02;5.30;;;;;;;;;;5013105;28;20064;-39
2022/05/24 05:53:30;;;;;;;7.85;5.38;;;;;;;;;;5013249;28;20069;-39
2022/05/24 05:55:56;;;;;;;12.00;6.13;;;;;;;;;;5013241;28;20034;-40
2022/05/24 05:58:22;;;;;;;7.93;5.38;;;;;;;;;;5014791;28;20025;-40
2022/05/24 06:00:50;;;;;;;5.70;4.80;;;;;;;;;;5013142;28;20025;-47
2022/05/24 06:03:16;;;;;;;7.53;5.13;;;;;;;;;;5017025;28;20089;-41
2022/05/24 06:05:47;;;;;;;8.30;5.15;;;;;;;;;;5028540;28;20017;-40
2022/05/24 06:08:12;;;;;;;7.22;5.05;;;;;;;;;;5014657;28;20030;-40
2022/05/24 06:10:38;;;;;;;9.95;5.20;;;;;;;;;;5024090;28;20048;-39
2022/05/24 06:13:04;;;;;;;7.68;5.28;;;;;;;;;;5028576;28;20144;-39
2022/05/24 06:15:30;;;;;;;8.20;6.28;;;;;;;;;;5020019;28;20034;-39
2022/05/24 06:17:56;;;;;;;10.82;6.43;;;;;;;;;;5019384;28;20075;-38
2022/05/24 06:20:23;;;;;;;9.05;6.13;;;;;;;;;;5018952;28;20449;-39
2022/05/24 06:22:49;;;;;;;12.65;6.25;;;;;;;;;;5027287;28;20022;-39
2022/05/24 06:25:16;;;;;;;10.48;6.60;;;;;;;;;;5048397;28;20406;-39
2022/05/24 06:27:41;;;;;;;9.52;5.93;;;;;;;;;;5024832;28;20022;-40
2022/05/24 06:30:07;;;;;;;11.75;6.18;;;;;;;;;;5013955;28;20025;-39
2022/05/24 06:32:32;;;;;;;10.35;7.07;;;;;;;;;;5011565;28;20057;-50
2022/05/24 06:34:58;;;;;;;10.98;6.47;;;;;;;;;;5010436;28;20145;-39
2022/05/24 06:37:24;;;;;;;8.38;6.85;;;;;;;;;;5012450;28;20033;-39
2022/05/24 06:39:50;;;;;;;9.45;6.60;;;;;;;;;;5018835;28;20396;-39
2022/05/24 06:42:16;;;;;;;8.48;6.13;;;;;;;;;;5019211;28;20026;-40
2022/05/24 06:44:41;;;;;;;8.90;6.32;;;;;;;;;;5031217;28;20388;-40
2022/05/24 06:47:07;;;;;;;11.65;6.57;;;;;;;;;;5016667;28;20021;-40
2022/05/24 06:49:32;;;;;;;9.40;6.05;;;;;;;;;;5015506;28;20026;-39
2022/05/24 06:51:58;;;;;;;12.75;6.80;;;;;;;;;;5014609;28;20026;-39
2022/05/24 06:54:23;;;;;;;11.40;7.32;;;;;;;;;;5016780;28;20029;-40
2022/05/24 06:56:49;;;;;;;9.90;6.50;;;;;;;;;;5024141;28;20033;-39
2022/05/24 07:04:42;;;;;;;11.43;6.50;;;;;;;;;;5015063;28;20029;-39
2022/05/24 07:07:07;;;;;;;10.68;6.55;;;;;;;;;;5025985;28;20022;-41
2022/05/24 07:09:33;;;;;;;7.90;5.95;;;;;;;;;;5017218;28;20022;-40
2022/05/24 07:11:59;;;;;;;9.40;6.15;;;;;;;;;;5020319;28;20060;-40
2022/05/24 07:14:25;;;;;;;11.73;6.70;;;;;;;;;;5014920;28;20050;-39
2022/05/24 07:16:51;;;;;;;7.55;6.10;;;;;;;;;;5020372;28;20155;-39
2022/05/24 07:19:17;;;;;;;9.15;6.07;;;;;;;;;;5021878;28;20029;-39
2022/05/24 07:21:44;;;;;;;8.27;6.35;;;;;;;;;;5015715;28;20048;-39
2022/05/24 07:24:09;;;;;;;11.43;6.70;;;;;;;;;;5019602;28;20096;-40
2022/05/24 07:26:35;;;;;;;10.23;6.78;;;;;;;;;;5030027;28;20076;-39
2022/05/24 07:29:00;;;;;;;10.13;6.35;;;;;;;;;;5018228;28;20689;-40
2022/05/24 07:31:25;;;;;;;12.40;6.10;;;;;;;;;;5025106;28;20024;-39
2022/05/24 07:33:51;;;;;;;14.60;6.93;;;;;;;;;;5022597;28;20026;-36
2022/05/24 07:36:16;;;;;;;16.70;7.00;;;;;;;;;;5014685;28;20089;-37
2022/05/24 07:38:42;;;;;;;12.38;6.45;;;;;;;;;;5016916;28;20033;-37
2022/05/24 07:46:35;;;;;;;16.65;6.72;;;;;;;;;;5030125;28;20040;-39
2022/05/24 07:49:01;;;;;;;9.38;6.00;;;;;;;;;;5021154;28;20494;-40
2022/05/24 07:51:26;;;;;;;7.53;4.53;;;;;;;;;;5023742;28;20405;-39
2022/05/24 07:53:52;;;;;;;13.93;5.90;;;;;;;;;;5031197;28;20021;-39
2022/05/24 07:56:18;;;;;;;5.63;4.20;;;;;;;;;;5031132;28;20033;-39
2022/05/24 07:58:45;;;;;;;13.43;5.65;;;;;;;;;;5030106;28;20029;-38
2022/05/24 08:01:10;;;;;;;6.32;4.30;;;;;;;;;;5024193;28;20468;-39
2022/05/24 08:03:38;;;;;;;13.77;5.43;;;;;;;;;;5026235;28;20010;-39
2022/05/24 08:06:04;;;;;;;9.13;4.80;;;;;;;;;;5018123;28;20064;-39
2022/05/24 08:08:29;;;;;;;12.80;5.05;;;;;;;;;;5019961;28;20038;-39
2022/05/24 08:10:55;;;;;;;6.15;4.03;;;;;;;;;;5014058;28;20083;-41
2022/05/24 08:13:20;;;;;;;5.85;3.83;;;;;;;;;;5020373;28;20068;-38
2022/05/24 08:15:46;;;;;;;7.00;4.43;;;;;;;;;;5021269;28;20042;-39
2022/05/24 08:18:11;;;;;;;6.85;4.85;;;;;;;;;;5022232;28;20380;-39
2022/05/24 08:20:38;;;;;;;7.95;3.95;;;;;;;;;;5029049;28;20487;-38
2022/05/24 08:23:03;;;;;;;5.63;4.28;;;;;;;;;;5017804;28;20037;-39
2022/05/24 08:25:30;;;;;;;9.52;3.65;;;;;;;;;;5029034;28;20018;-39
2022/05/24 08:27:56;;;;;;;9.07;4.05;;;;;;;;;;5021038;28;20405;-39
2022/05/24 08:30:22;;;;;;;6.03;3.50;;;;;;;;;;5035215;28;20021;-40
2022/05/24 08:32:48;;;;;;;6.50;3.25;;;;;;;;;;5047046;28;20036;-39
2022/05/24 08:35:14;;;;;;;6.95;3.42;;;;;;;;;;5033372;28;20416;-40
2022/05/24 08:37:40;;;;;;;5.57;2.92;;;;;;;;;;5020836;28;20041;-40
2022/05/24 08:40:06;;;;;;;5.90;3.25;;;;;;;;;;5027671;28;20036;-40
2022/05/24 08:42:59;;;;;;;5.80;3.42;;;;;;;;;;5028776;28;20022;-39
2022/05/24 08:48:26;;;;;;;6.85;3.20;;;;;;;;;;5017299;28;20072;-39
2022/05/24 08:50:51;;;;;;;;;;;;;;;;;;5019764;28;20476;-39
2022/05/24 08:53:37;;;;;;;5.87;3.93;;;;;;;;;;5019982;28;19917;-41
2022/05/24 08:56:06;;;;;;;15.60;6.20;;;;;;;;;;5027571;28;20082;-39
2022/05/24 08:58:41;;;;;;;7.78;5.93;;;;;;;;;;5014985;28;20492;-40
2022/05/24 09:01:13;;;;;;;10.80;6.63;;;;;;;;;;5018923;28;20025;-40
2022/05/24 09:03:38;;;;;;;6.63;3.97;;;;;;;;;;5020609;28;20028;-38
2022/05/24 09:06:19;;;;;;;9.18;4.07;;;;;;;;;;5022422;28;20034;-40
2022/05/24 09:08:59;;;;;;;6.25;4.35;;;;;;;;;;5022191;28;20029;-38
2022/05/24 09:11:38;;;;;;;6.80;4.25;;;;;;;;;;5024094;28;20386;-39
2022/05/24 09:14:20;;;;;;;4.85;3.97;;;;;;;;;;5021271;28;20026;-39
2022/05/24 09:16:54;;;;;;;5.57;3.88;;;;;;;;;;5025074;28;20052;-39
2022/05/24 09:19:27;;;;;;;7.15;3.70;;;;;;;;;;5031023;28;20104;-39
2022/05/24 09:21:53;;;;;;;6.57;3.95;;;;;;;;;;5023211;28;20116;-42
2022/05/24 09:24:37;;;;;;;6.55;3.65;;;;;;;;;;5025784;28;20104;-40
2022/05/24 09:27:03;;;;;;;4.38;2.92;;;;;;;;;;5031335;28;20017;-39
2022/05/24 09:29:28;;;;;;;3.55;2.63;;;;;;;;;;5032418;28;20067;-41
2022/05/24 09:31:56;;;;;;;6.05;2.50;;;;;;;;;;5032366;28;20021;-39
2022/05/24 09:34:34;;;;;;;3.53;2.63;;;;;;;;;;5032349;28;20468;-39
2022/05/24 09:37:04;;;;;;;4.50;2.65;;;;;;;;;;5032741;28;20060;-38
2022/05/24 09:39:32;;;;;;;3.92;2.33;;;;;;;;;;5031330;28;20042;-38
2022/05/24 09:41:59;;;;;;;2.97;2.30;;;;;;;;;;5032595;28;20400;-38
2022/05/24 09:44:26;;;;;;;4.72;2.78;;;;;;;;;;5032574;28;20021;-39
2022/05/24 09:46:51;;;;;;;3.63;2.53;;;;;;;;;;5032972;28;20026;-39
2022/05/24 09:49:21;;;;;;;4.43;2.78;;;;;;;;;;5032093;28;20022;-38
2022/05/24 09:51:47;;;;;;;3.58;2.40;;;;;;;;;;5032252;28;20025;-38
2022/05/24 09:54:17;;;;;;;3.80;2.30;;;;;;;;;;5032037;28;20105;-41
2022/05/24 09:56:58;;;;;;;4.28;1.80;;;;;;;;;;5027594;28;20076;-37
2022/05/24 09:59:26;;;;;;;6.47;2.17;;;;;;;;;;5023981;28;20468;-39
2022/05/24 10:01:53;;;;;;;3.70;1.88;;;;;;;;;;5027012;28;20029;-40
2022/05/24 10:04:22;;;;;;;3.63;2.42;;;;;;;;;;5025431;28;20022;-38
2022/05/24 10:06:53;;;;;;;1.88;1.60;;;;;;;;;;5032138;28;20125;-38
2022/05/24 10:09:18;;;;;;;4.43;1.50;;;;;;;;;;5030803;28;20026;-38
2022/05/24 10:11:55;;;;;;;2.45;1.83;;;;;;;;;;5026595;28;20037;-38
2022/05/24 10:14:27;;;;;;;5.95;2.10;;;;;;;;;;5019555;28;20044;-42
2022/05/24 10:17:11;;;;;;;3.70;2.22;;;;;;;;;;5027763;28;20061;-38
2022/05/24 10:19:57;;;;;;;4.75;2.30;;;;;;;;;;5027322;28;20088;-38
2022/05/24 10:22:49;;;;;;;4.22;1.63;;;;;;;;;;5042811;28;20065;-39
2022/05/24 10:25:14;;;;;;;2.47;2.03;;;;;;;;;;5035050;28;20120;-37
2022/05/24 10:27:42;;;;;;;5.53;3.20;;;;;;;;;;5028832;28;20160;-38
2022/05/24 10:30:21;;;;;;;2.08;1.58;;;;;;;;;;5020637;28;20071;-39
2022/05/24 10:39:04;;;;;;;2.03;1.80;;;;;;;;;;5005097;28;20092;-37
2022/05/24 10:41:33;;;;;;;2.38;1.38;;;;;;;;;;5025372;28;20130;-37
2022/05/24 10:43:58;;;;;;;2.75;1.48;;;;;;;;;;5031889;28;20469;-38
2022/05/24 10:46:33;;;;;;;3.80;1.85;;;;;;;;;;5031114;28;20041;-39
2022/05/24 10:49:02;;;;;;;1.65;1.55;;;;;;;;;;5021864;28;20053;-37
2022/05/24 10:51:27;;;;;;;;;;;;;;;;;;5025229;28;20034;-38
2022/05/24 10:53:54;;;;;;;7.03;1.73;;;;;;;;;;5025179;28;19920;-39
2022/05/24 10:56:39;;;;;;;2.28;1.35;;;;;;;;;;5021223;28;20293;-38
2022/05/24 10:59:19;;;;;;;3.95;1.45;;;;;;;;;;5020292;28;20473;-40
2022/05/24 11:01:50;;;;;;;5.70;1.52;;;;;;;;;;5022427;28;20038;-38
2022/05/24 11:04:18;;;;;;;2.45;1.60;;;;;;;;;;5025723;28;20080;-39
2022/05/24 11:07:06;;;;;;;6.63;1.98;;;;;;;;;;5033559;28;20851;-38
2022/05/24 11:09:34;;;;;;;4.35;2.00;;;;;;;;;;5048669;28;20112;-39
2022/05/24 11:12:19;;;;;;;5.50;2.22;;;;;;;;;;5034708;28;20013;-39
2022/05/24 11:14:51;;;;;;;5.20;1.60;;;;;;;;;;5043570;28;20044;-40
2022/05/24 11:17:20;;;;;;;5.63;1.85;;;;;;;;;;5026237;28;20041;-38
2022/05/24 11:19:49;;;;;;;4.75;2.00;;;;;;;;;;5022592;28;20034;-39
2022/05/24 11:22:18;;;;;;;8.20;2.33;;;;;;;;;;5028431;28;20175;-38
2022/05/24 11:24:49;;;;;;;5.23;1.87;;;;;;;;;;5042374;28;20034;-38
2022/05/24 11:27:15;;;;;;;6.05;2.20;;;;;;;;;;5032954;28;20029;-39
2022/05/24 11:29:43;;;;;;;3.30;2.03;;;;;;;;;;5033286;28;20045;-39
2022/05/24 11:32:10;;;;;;;2.08;1.83;;;;;;;;;;5027159;28;20484;-39
2022/05/24 11:34:39;;;;;;;3.38;1.60;;;;;;;;;;5019529;28;20036;-40
2022/05/24 11:37:05;;;;;;;;;;;;;;;;;;5031489;28;20079;-38
2022/05/24 11:39:33;;;;;;;1.85;1.65;;;;;;;;;;5030934;28;20360;-39
2022/05/24 11:42:17;;;;;;;2.65;1.55;;;;;;;;;;5031876;28;20022;-39
2022/05/24 11:44:42;;;;;;;2.30;1.77;;;;;;;;;;5021734;28;20375;-39
2022/05/24 11:47:07;;;;;;;6.63;1.92;;;;;;;;;;5024649;28;20025;-39
2022/05/24 11:49:33;;;;;;;3.47;1.92;;;;;;;;;;5029707;28;20430;-39
2022/05/24 11:51:59;;;;;;;3.42;1.63;;;;;;;;;;5032794;28;20102;-39
2022/05/24 11:54:24;;;;;;;4.93;1.45;;;;;;;;;;5016668;28;20057;-40
2022/05/24 11:57:01;;;;;;;3.33;2.05;;;;;;;;;;5028351;28;20037;-38
2022/05/24 11:59:48;;;;;;;5.60;1.60;;;;;;;;;;5025062;28;20032;-40
2022/05/24 12:02:24;;;;;;;2.72;1.65;;;;;;;;;;5017933;28;20096;-39
2022/05/24 12:07:57;;;;;;;3.03;1.80;;;;;;;;;;5029444;28;20094;-38
2022/05/24 12:10:26;;;;;;;2.47;1.90;;;;;;;;;;5020875;28;20037;-39
2022/05/24 12:13:18;;;;;;;3.75;2.30;;;;;;;;;;5030470;28;20423;-39
2022/05/24 12:15:43;;;;;;;7.93;1.83;;;;;;;;;;5015647;28;20088;-40
2022/05/24 12:18:09;;;;;;;4.22;2.22;;;;;;;;;;5028503;28;20061;-39
2022/05/24 12:20:35;;;;;;;5.03;2.42;;;;;;;;;;5034333;28;20366;-39
2022/05/24 12:23:06;;;;;;;6.50;2.10;;;;;;;;;;5023620;28;20168;-39
2022/05/24 12:25:51;;;;;;;7.00;2.30;;;;;;;;;;5035191;28;20029;-39
2022/05/24 12:28:16;;;;;;;3.17;2.15;;;;;;;;;;5033965;28;20033;-40
2022/05/24 12:30:49;;;;;;;4.28;2.08;;;;;;;;;;5019859;28;20384;-39
2022/05/24 12:33:35;;;;;;;5.95;2.10;;;;;;;;;;5019737;28;20034;-41
2022/05/24 12:36:06;;;;;;;3.28;2.13;;;;;;;;;;5027602;28;20133;-42
2022/05/24 12:38:33;;;;;;;4.55;2.20;;;;;;;;;;5017055;28;20133;-39
2022/05/24 12:41:06;;;;;;;4.15;2.10;;;;;;;;;;5028901;28;20056;-40
2022/05/24 12:43:31;;;;;;;4.32;2.15;;;;;;;;;;5022949;28;20492;-40
2022/05/24 12:45:59;;;;;;;4.93;2.45;;;;;;;;;;5017878;28;20026;-40
2022/05/24 12:48:24;;;;;;;5.38;2.28;;;;;;;;;;5025795;28;20101;-39
2022/05/24 12:50:51;;;;;;;6.20;2.30;;;;;;;;;;5019446;28;20112;-39
2022/05/24 12:53:20;;;;;;;7.43;2.50;;;;;;;;;;5020268;28;20021;-39
2022/05/24 12:55:55;;;;;;;;;;;;;;;;;;5028875;28;20128;-38
2022/05/24 12:58:31;;;;;;;5.30;2.40;;;;;;;;;;5025387;28;19959;-38
2022/05/24 13:01:15;;;;;;;4.80;2.28;;;;;;;;;;5025079;28;20461;-39
2022/05/24 13:03:52;;;;;;;5.80;2.20;;;;;;;;;;5019514;28;20383;-38
2022/05/24 13:06:26;;;;;;;3.13;1.92;;;;;;;;;;5023346;28;20053;-39
2022/05/24 13:09:09;;;;;;;4.13;2.08;;;;;;;;;;5028989;28;20037;-39
2022/05/24 13:11:35;;;;;;;3.78;2.05;;;;;;;;;;5025880;28;20021;-39
2022/05/24 13:14:01;;;;;;;3.42;2.38;;;;;;;;;;5030610;28;20036;-39
2022/05/24 13:16:27;;;;;;;3.08;2.10;;;;;;;;;;5025739;28;20037;-39
2022/05/24 13:18:53;;;;;;;5.22;2.10;;;;;;;;;;5028335;28;20021;-39
2022/05/24 13:21:22;;;;;;;5.80;1.95;;;;;;;;;;5021925;28;20033;-39
2022/05/24 13:23:48;;;;;;;3.58;1.80;;;;;;;;;;5017810;28;20466;-40
2022/05/24 13:26:15;;;;;;;8.38;2.25;;;;;;;;;;5027411;28;20013;-39
2022/05/24 13:28:48;;;;;;;5.43;1.58;;;;;;;;;;5018337;28;20053;-39
2022/05/24 13:33:58;;;;;;;5.25;1.80;;;;;;;;;;5021979;28;20036;-39
2022/05/24 13:36:26;;;;;;;9.50;2.40;;;;;;;;;;5026364;28;20054;-39
2022/05/24 13:39:04;;;;;;;3.65;2.33;;;;;;;;;;5016948;28;20017;-40
2022/05/24 13:41:36;;;;;;;5.13;2.05;;;;;;;;;;5019382;28;20072;-40
2022/05/24 13:44:09;;;;;;;6.28;2.65;;;;;;;;;;5023917;28;20037;-39
2022/05/24 13:46:48;;;;;;;2.70;2.20;;;;;;;;;;5028637;28;20026;-39
2022/05/24 13:49:34;;;;;;;4.47;2.25;;;;;;;;;;5028485;28;20049;-39
2022/05/24 13:52:12;;;;;;;3.70;1.83;;;;;;;;;;5024590;28;20076;-39
2022/05/24 13:54:38;;;;;;;3.45;2.08;;;;;;;;;;5016888;28;20025;-42
2022/05/24 13:57:04;;;;;;;4.90;1.80;;;;;;;;;;5025160;28;20039;-39
2022/05/24 13:59:29;;;;;;;5.03;2.67;;;;;;;;;;5020719;28;20030;-39
2022/05/24 14:01:56;;;;;;;4.70;1.90;;;;;;;;;;5022498;28;20033;-39
2022/05/24 14:04:29;;;;;;;1.92;1.58;;;;;;;;;;5021481;28;20048;-39
2022/05/24 14:06:58;;;;;;;3.25;1.88;;;;;;;;;;5029001;28;20018;-39
2022/05/24 14:09:27;;;;;;;8.75;2.00;;;;;;;;;;5026069;28;20025;-39
2022/05/24 14:11:54;;;;;;;3.45;1.90;;;;;;;;;;5026998;28;20044;-39
2022/05/24 14:14:20;;;;;;;2.28;1.83;;;;;;;;;;5032211;28;20472;-39
2022/05/24 14:16:46;;;;;;;3.72;2.20;;;;;;;;;;5031934;28;20025;-39
2022/05/24 14:19:12;;;;;;;5.68;2.00;;;;;;;;;;5025607;28;20026;-39
2022/05/24 14:21:40;;;;;;;5.47;1.88;;;;;;;;;;5017373;28;20051;-41
2022/05/24 14:24:12;;;;;;;2.53;1.60;;;;;;;;;;5019872;28;20108;-39
2022/05/24 14:26:39;;;;;;;5.57;1.67;;;;;;;;;;5025928;28;20018;-39
2022/05/24 14:29:05;;;;;;;5.35;2.00;;;;;;;;;;5018588;28;20013;-41
2022/05/24 14:31:32;;;;;;;3.15;1.63;;;;;;;;;;5023044;28;20501;-40
2022/05/24 14:33:57;;;;;;;2.42;1.70;;;;;;;;;;5018334;28;20116;-40
2022/05/24 14:36:23;;;;;;;4.07;1.80;;;;;;;;;;5009167;28;20204;-43
2022/05/24 14:38:48;;;;;;;6.75;2.05;;;;;;;;;;5009935;28;20038;-41
2022/05/24 14:41:17;;;;;;;5.47;2.10;;;;;;;;;;5012323;28;20026;-40
2022/05/24 14:43:45;;;;;;;7.38;2.15;;;;;;;;;;5012234;28;20021;-41
2022/05/24 14:46:11;;;;;;;6.50;1.63;;;;;;;;;;5010964;28;20326;-41
2022/05/24 14:48:37;;;;;;;2.65;1.95;;;;;;;;;;5009483;28;20472;-41
2022/05/24 14:51:04;;;;;;;3.38;2.00;;;;;;;;;;5010900;28;20025;-42
2022/05/24 14:53:31;;;;;;;4.05;1.65;;;;;;;;;;5010559;28;20117;-41
2022/05/24 14:55:56;;;;;;;3.70;2.00;;;;;;;;;;5022328;28;20040;-40
2022/05/24 14:58:22;;;;;;;5.10;1.90;;;;;;;;;;5029718;28;20025;-43
2022/05/24 15:00:47;;;;;;;3.78;1.90;;;;;;;;;;5029998;28;20041;-41
2022/05/24 15:03:13;;;;;;;4.50;1.80;;;;;;;;;;5031003;28;20025;-41
2022/05/24 15:05:39;;;;;;;6.88;2.55;;;;;;;;;;5032771;28;20033;-40
2022/05/24 15:16:18;;;;;;;3.67;2.10;;;;;;;;;;5035822;28;20028;-40
2022/05/24 15:18:44;;;;;;;2.53;1.90;;;;;;;;;;5035859;28;20025;-40
2022/05/24 15:21:09;;;;;;;3.10;1.98;;;;;;;;;;5035499;28;20104;-40
2022/05/24 15:23:37;;;;;;;3.20;2.00;;;;;;;;;;5034127;28;20025;-40
2022/05/24 15:26:08;;;;;;;8.38;2.67;;;;;;;;;;5034364;28;20022;-41
2022/05/24 15:28:36;;;;;;;5.05;2.40;;;;;;;;;;5035609;28;20515;-40
2022/05/24 15:31:01;;;;;;;10.38;2.85;;;;;;;;;;5035582;28;20075;-40
2022/05/24 15:33:27;;;;;;;3.58;2.10;;;;;;;;;;5035505;28;20025;-40
2022/05/24 15:35:52;;;;;;;3.33;2.10;;;;;;;;;;5033802;28;20092;-38
2022/05/24 15:38:20;;;;;;;4.43;1.98;;;;;;;;;;5035085;28;20128;-40